createdAt,value
2022-09-13T00:00:08.450Z,17.65
2022-09-13T00:01:48.215Z,17.62
2022-09-13T00:03:27.995Z,17.62
2022-09-13T00:05:07.760Z,17.6
2022-09-13T00:06:47.523Z,17.57
2022-09-13T00:08:27.301Z,17.54
2022-09-13T00:10:07.062Z,17.54
2022-09-13T00:11:46.828Z,17.54
2022-09-13T00:13:26.604Z,17.53
2022-09-13T00:15:06.389Z,17.5
2022-09-13T00:16:46.129Z,17.48
2022-09-13T00:18:25.914Z,17.46
2022-09-13T00:20:05.662Z,17.45
2022-09-13T00:21:45.445Z,17.44
2022-09-13T00:25:04.955Z,17.4
2022-09-13T00:26:44.735Z,17.42
2022-09-13T00:28:24.497Z,17.37
2022-09-13T00:31:44.070Z,17.36
2022-09-13T00:33:23.808Z,17.33
2022-09-13T00:35:03.561Z,17.32
2022-09-13T00:36:43.353Z,17.31
2022-09-13T00:38:23.094Z,17.29
2022-09-13T00:40:02.859Z,17.28
2022-09-13T00:41:42.631Z,17.27
2022-09-13T00:43:22.416Z,17.27
2022-09-13T00:45:02.176Z,17.24
2022-09-13T00:46:41.930Z,17.21
2022-09-13T00:48:21.705Z,17.21
2022-09-13T00:50:01.475Z,17.2
2022-09-13T00:51:41.255Z,17.2
2022-09-13T00:53:21.009Z,17.18
2022-09-13T00:55:00.781Z,17.16
2022-09-13T00:56:40.533Z,17.14
2022-09-13T00:58:20.315Z,17.12
2022-09-13T01:00:00.091Z,17.12
2022-09-13T01:01:39.868Z,17.11
2022-09-13T01:03:19.620Z,17.09
2022-09-13T01:04:59.375Z,17.09
2022-09-13T01:06:39.139Z,17.07
2022-09-13T01:08:18.912Z,17.04
2022-09-13T01:09:58.674Z,17.04
2022-09-13T01:11:38.457Z,17.03
2022-09-13T01:13:18.209Z,17.02
2022-09-13T01:14:57.979Z,17
2022-09-13T01:16:37.757Z,17.01
2022-09-13T01:18:17.530Z,17
2022-09-13T01:19:57.307Z,16.99
2022-09-13T01:21:37.053Z,16.95
2022-09-13T01:23:16.822Z,16.95
2022-09-13T01:24:56.592Z,16.94
2022-09-13T01:26:36.373Z,16.94
2022-09-13T01:28:16.126Z,16.92
2022-09-13T01:29:55.888Z,16.91
2022-09-13T01:31:35.660Z,16.9
2022-09-13T01:33:15.425Z,16.87
2022-09-13T01:34:55.207Z,16.86
2022-09-13T01:36:34.946Z,16.87
2022-09-13T01:38:14.726Z,16.84
2022-09-13T01:39:54.500Z,16.82
2022-09-13T01:41:34.285Z,16.82
2022-09-13T01:43:14.143Z,16.81
2022-09-13T01:44:53.800Z,16.79
2022-09-13T01:46:33.561Z,16.77
2022-09-13T01:48:13.337Z,16.77
2022-09-13T01:49:53.107Z,16.76
2022-09-13T01:51:32.860Z,16.76
2022-09-13T01:53:12.625Z,16.74
2022-09-13T01:54:52.402Z,16.73
2022-09-13T01:56:32.204Z,16.71
2022-09-13T01:58:11.937Z,16.71
2022-09-13T01:59:51.699Z,16.68
2022-09-13T02:01:31.471Z,16.7
2022-09-13T02:03:11.238Z,16.67
2022-09-13T02:04:51.006Z,16.65
2022-09-13T02:06:30.779Z,16.66
2022-09-13T02:08:10.550Z,16.64
2022-09-13T02:09:50.304Z,16.62
2022-09-13T02:11:30.076Z,16.61
2022-09-13T02:13:09.843Z,16.59
2022-09-13T02:14:49.612Z,16.6
2022-09-13T02:16:29.390Z,16.57
2022-09-13T02:18:09.154Z,16.57
2022-09-13T02:19:48.908Z,16.54
2022-09-13T02:21:28.687Z,16.53
2022-09-13T02:23:08.457Z,16.54
2022-09-13T02:24:48.223Z,16.5
2022-09-13T02:26:27.991Z,16.49
2022-09-13T02:28:07.747Z,16.49
2022-09-13T02:29:47.517Z,16.46
2022-09-13T02:31:27.347Z,16.45
2022-09-13T02:34:46.812Z,16.44
2022-09-13T02:36:26.605Z,16.42
2022-09-13T02:38:06.398Z,16.44
2022-09-13T02:39:46.118Z,16.41
2022-09-13T02:41:25.891Z,16.4
2022-09-13T02:43:05.693Z,16.4
2022-09-13T02:44:45.421Z,16.37
2022-09-13T02:46:25.199Z,16.37
2022-09-13T02:48:04.972Z,16.36
2022-09-13T02:49:44.727Z,16.35
2022-09-13T02:51:24.494Z,16.34
2022-09-13T02:53:04.261Z,16.33
2022-09-13T02:54:44.026Z,16.33
2022-09-13T02:56:23.809Z,16.31
2022-09-13T02:58:03.595Z,16.29
2022-09-13T02:59:43.434Z,16.29
2022-09-13T03:01:23.119Z,16.27
2022-09-13T03:03:02.853Z,16.26
2022-09-13T03:04:42.676Z,16.26
2022-09-13T03:06:22.397Z,16.24
2022-09-13T03:08:02.208Z,16.24
2022-09-13T03:09:41.924Z,16.23
2022-09-13T03:11:21.731Z,16.23
2022-09-13T03:13:01.474Z,16.19
2022-09-13T03:14:41.235Z,16.19
2022-09-13T03:16:21.006Z,16.17
2022-09-13T03:18:00.780Z,16.18
2022-09-13T03:19:40.541Z,16.18
2022-09-13T03:21:20.307Z,16.16
2022-09-13T03:23:00.084Z,16.14
2022-09-13T03:24:39.844Z,16.12
2022-09-13T03:26:19.611Z,16.12
2022-09-13T03:27:59.381Z,16.11
2022-09-13T03:29:39.142Z,16.11
2022-09-13T03:31:18.907Z,16.11
2022-09-13T03:32:58.736Z,16.1
2022-09-13T03:34:38.441Z,16.06
2022-09-13T03:36:18.272Z,16.07
2022-09-13T03:37:57.973Z,16.04
2022-09-13T03:39:37.746Z,16.06
2022-09-13T03:41:17.544Z,16.06
2022-09-13T03:42:57.293Z,16.03
2022-09-13T03:44:37.069Z,16.02
2022-09-13T03:46:16.816Z,16.02
2022-09-13T03:49:36.361Z,16.01
2022-09-13T03:51:16.118Z,15.99
2022-09-13T03:52:55.874Z,15.99
2022-09-13T03:54:35.655Z,15.98
2022-09-13T03:56:15.440Z,15.97
2022-09-13T03:57:55.179Z,15.94
2022-09-13T03:59:34.945Z,15.95
2022-09-13T04:01:14.756Z,15.96
2022-09-13T04:02:54.482Z,15.94
2022-09-13T04:04:34.286Z,15.92
2022-09-13T04:06:14.011Z,15.91
2022-09-13T04:07:53.761Z,15.92
2022-09-13T04:09:33.532Z,15.89
2022-09-13T04:11:13.413Z,15.89
2022-09-13T04:12:53.063Z,15.9
2022-09-13T04:14:32.837Z,15.88
2022-09-13T04:16:12.597Z,15.88
2022-09-13T04:17:52.350Z,15.85
2022-09-13T04:21:11.891Z,15.87
2022-09-13T04:22:51.656Z,15.9
2022-09-13T04:24:31.409Z,15.91
2022-09-13T04:26:11.189Z,15.92
2022-09-13T04:27:50.934Z,15.94
2022-09-13T04:29:30.701Z,15.97
2022-09-13T04:31:10.461Z,15.96
2022-09-13T04:32:50.290Z,16.02
2022-09-13T04:34:30.002Z,16.02
2022-09-13T04:36:09.766Z,16.02
2022-09-13T04:37:49.545Z,16.07
2022-09-13T04:39:29.285Z,16.04
2022-09-13T04:41:09.058Z,16.06
2022-09-13T04:42:48.821Z,16.09
2022-09-13T04:44:28.590Z,16.08
2022-09-13T04:46:08.346Z,16.09
2022-09-13T04:47:48.108Z,16.1
2022-09-13T04:49:27.883Z,16.14
2022-09-13T04:51:07.635Z,16.12
2022-09-13T04:52:47.407Z,16.17
2022-09-13T04:54:27.171Z,16.16
2022-09-13T04:56:06.949Z,16.17
2022-09-13T04:57:46.703Z,16.17
2022-09-13T05:01:06.232Z,16.2
2022-09-13T05:02:46.030Z,16.19
2022-09-13T05:04:25.784Z,16.23
2022-09-13T05:06:05.587Z,16.2
2022-09-13T05:07:45.387Z,16.2
2022-09-13T05:09:25.074Z,16.21
2022-09-13T05:11:04.853Z,16.24
2022-09-13T05:12:44.625Z,16.26
2022-09-13T05:14:24.380Z,16.26
2022-09-13T05:16:04.178Z,16.29
2022-09-13T05:17:43.907Z,16.28
2022-09-13T05:19:23.687Z,16.29
2022-09-13T05:21:03.460Z,16.29
2022-09-13T05:22:43.223Z,16.29
2022-09-13T05:24:22.998Z,16.31
2022-09-13T05:26:02.759Z,16.31
2022-09-13T05:27:42.544Z,16.34
2022-09-13T05:29:22.297Z,16.35
2022-09-13T05:31:02.071Z,16.35
2022-09-13T05:32:41.843Z,16.39
2022-09-13T05:34:21.631Z,16.37
2022-09-13T05:36:01.386Z,16.39
2022-09-13T05:37:41.163Z,16.44
2022-09-13T05:41:00.697Z,16.45
2022-09-13T05:42:40.469Z,16.44
2022-09-13T05:44:20.248Z,16.46
2022-09-13T05:46:00.002Z,16.45
2022-09-13T05:47:39.820Z,16.48
2022-09-13T05:49:19.588Z,16.48
2022-09-13T05:50:59.306Z,16.48
2022-09-13T05:52:39.111Z,16.49
2022-09-13T05:54:18.871Z,16.48
2022-09-13T05:55:58.619Z,16.49
2022-09-13T05:57:38.437Z,16.49
2022-09-13T05:59:18.181Z,16.51
2022-09-13T06:00:57.934Z,16.5
2022-09-13T06:02:37.703Z,16.48
2022-09-13T06:04:17.484Z,16.5
2022-09-13T06:05:57.243Z,16.51
2022-09-13T06:07:37.018Z,16.51
2022-09-13T06:09:16.785Z,16.52
2022-09-13T06:10:56.538Z,16.54
2022-09-13T06:12:36.383Z,16.54
2022-09-13T06:14:16.144Z,16.54
2022-09-13T06:15:55.951Z,16.57
2022-09-13T06:17:35.624Z,16.57
2022-09-13T06:19:15.579Z,16.6
2022-09-13T06:20:55.170Z,16.62
2022-09-13T06:22:34.980Z,16.59
2022-09-13T06:24:14.712Z,16.61
2022-09-13T06:25:54.576Z,16.62
2022-09-13T06:29:14.071Z,16.62
2022-09-13T06:30:53.807Z,16.62
2022-09-13T06:32:33.547Z,16.64
2022-09-13T06:34:13.295Z,16.65
2022-09-13T06:35:53.069Z,16.64
2022-09-13T06:37:32.831Z,16.64
2022-09-13T06:39:12.677Z,16.66
2022-09-13T06:40:52.382Z,16.66
2022-09-13T06:42:32.170Z,16.67
2022-09-13T06:44:11.932Z,16.68
2022-09-13T06:45:51.731Z,16.69
2022-09-13T06:47:31.449Z,16.7
2022-09-13T06:49:11.234Z,16.7
2022-09-13T06:50:50.992Z,16.71
2022-09-13T06:52:30.816Z,16.74
2022-09-13T06:54:10.553Z,16.77
2022-09-13T06:55:50.304Z,16.79
2022-09-13T06:57:30.087Z,16.82
2022-09-13T06:59:09.924Z,16.83
2022-09-13T07:00:49.619Z,16.87
2022-09-13T07:02:29.379Z,16.89
2022-09-13T07:04:09.203Z,16.92
2022-09-13T07:05:48.938Z,16.9
2022-09-13T07:07:28.697Z,16.9
2022-09-13T07:09:08.464Z,16.9
2022-09-13T07:10:48.252Z,16.89
2022-09-13T07:12:28.000Z,16.89
2022-09-13T07:14:07.842Z,16.87
2022-09-13T07:15:47.535Z,16.87
2022-09-13T07:17:27.311Z,16.87
2022-09-13T07:19:07.105Z,16.89
2022-09-13T07:20:46.855Z,16.89
2022-09-13T07:22:26.625Z,16.95
2022-09-13T07:24:06.402Z,17.03
2022-09-13T07:25:46.178Z,17.12
2022-09-13T07:27:25.950Z,17.24
2022-09-13T07:29:05.719Z,17.34
2022-09-13T07:30:45.477Z,17.44
2022-09-13T07:32:25.254Z,17.52
2022-09-13T07:34:05.023Z,17.59
2022-09-13T07:35:44.786Z,17.64
2022-09-13T07:37:24.561Z,17.73
2022-09-13T07:39:04.342Z,17.76
2022-09-13T07:40:44.177Z,17.85
2022-09-13T07:42:23.878Z,17.9
2022-09-13T07:44:03.719Z,17.96
2022-09-13T07:45:43.419Z,18.03
2022-09-13T07:47:23.234Z,18.1
2022-09-13T07:54:02.279Z,18.31
2022-09-13T07:55:42.042Z,18.37
2022-09-13T07:57:21.798Z,18.43
2022-09-13T07:59:01.577Z,18.48
2022-09-13T08:00:41.352Z,18.51
2022-09-13T08:02:21.154Z,18.58
2022-09-13T08:04:00.929Z,18.62
2022-09-13T08:05:40.675Z,18.67
2022-09-13T08:07:20.458Z,18.7
2022-09-13T08:09:00.237Z,18.76
2022-09-13T08:10:39.976Z,18.82
2022-09-13T08:12:19.744Z,18.85
2022-09-13T08:13:59.595Z,18.9
2022-09-13T08:15:39.279Z,18.93
2022-09-13T08:17:19.059Z,18.99
2022-09-13T08:18:58.868Z,19.04
2022-09-13T08:20:38.597Z,19.04
2022-09-13T08:22:18.380Z,19.1
2022-09-13T08:23:58.142Z,19.17
2022-09-13T08:25:37.918Z,19.19
2022-09-13T08:27:17.671Z,19.2
2022-09-13T08:28:57.439Z,19.27
2022-09-13T08:30:37.220Z,19.29
2022-09-13T08:32:17.054Z,19.32
2022-09-13T08:33:56.765Z,19.36
2022-09-13T08:35:36.532Z,19.4
2022-09-13T08:37:16.373Z,19.43
2022-09-13T08:38:56.087Z,19.49
2022-09-13T08:40:35.850Z,19.53
2022-09-13T08:42:15.610Z,19.54
2022-09-13T08:43:55.415Z,19.58
2022-09-13T08:45:35.163Z,19.6
2022-09-13T08:47:14.932Z,19.62
2022-09-13T08:48:54.685Z,19.66
2022-09-13T08:50:34.461Z,19.7
2022-09-13T08:52:14.264Z,19.74
2022-09-13T08:53:54.009Z,19.79
2022-09-13T08:55:33.778Z,19.84
2022-09-13T08:57:13.538Z,19.84
2022-09-13T08:58:53.308Z,19.87
2022-09-13T09:00:33.081Z,19.91
2022-09-13T09:02:12.872Z,19.94
2022-09-13T09:03:52.629Z,19.95
2022-09-13T09:05:32.425Z,20
2022-09-13T09:07:12.180Z,20.04
2022-09-13T09:08:51.944Z,20.08
2022-09-13T09:10:31.712Z,20.09
2022-09-13T09:12:11.480Z,20.15
2022-09-13T09:15:31.009Z,20.19
2022-09-13T09:17:10.857Z,20.21
2022-09-13T09:18:50.549Z,20.27
2022-09-13T09:20:30.393Z,20.29
2022-09-13T09:22:10.129Z,20.34
2022-09-13T09:23:49.891Z,20.35
2022-09-13T09:27:09.557Z,20.43
2022-09-13T09:28:49.179Z,20.46
2022-09-13T09:30:29.095Z,20.5
2022-09-13T09:33:48.543Z,20.58
2022-09-13T09:35:28.367Z,20.59
2022-09-13T09:37:08.142Z,20.64
2022-09-13T09:38:47.835Z,20.7
2022-09-13T09:40:27.577Z,20.73
2022-09-13T09:42:07.456Z,20.76
2022-09-13T09:43:47.204Z,20.8
2022-09-13T09:45:26.987Z,20.86
2022-09-13T09:47:06.772Z,20.87
2022-09-13T09:48:46.552Z,20.9
2022-09-13T09:50:26.293Z,20.96
2022-09-13T09:52:05.974Z,21
2022-09-13T09:53:45.763Z,21.03
2022-09-13T09:55:25.617Z,21.07
2022-09-13T09:57:05.353Z,21.12
2022-09-13T09:58:45.057Z,21.19
2022-09-13T10:00:24.818Z,21.22
2022-09-13T10:02:04.605Z,21.25
2022-09-13T10:03:44.456Z,21.3
2022-09-13T10:05:24.127Z,21.32
2022-09-13T10:07:03.914Z,21.4
2022-09-13T10:08:43.736Z,21.42
2022-09-13T10:10:23.454Z,21.48
2022-09-13T10:12:03.215Z,21.52
2022-09-13T10:13:42.987Z,21.57
2022-09-13T10:15:22.762Z,21.63
2022-09-13T10:17:02.533Z,21.64
2022-09-13T10:18:42.290Z,21.7
2022-09-13T10:20:22.073Z,21.76
2022-09-13T10:22:01.871Z,21.75
2022-09-13T10:23:41.672Z,21.72
2022-09-13T10:25:21.383Z,21.7
2022-09-13T10:27:01.141Z,21.66
2022-09-13T10:28:40.924Z,21.61
2022-09-13T10:30:20.720Z,21.55
2022-09-13T10:32:00.450Z,21.55
2022-09-13T10:33:40.220Z,21.52
2022-09-13T10:35:20.008Z,21.55
2022-09-13T10:36:59.769Z,21.54
2022-09-13T10:40:19.310Z,21.61
2022-09-13T10:41:59.115Z,21.64
2022-09-13T10:43:38.841Z,21.65
2022-09-13T10:45:18.619Z,21.67
2022-09-13T10:46:58.384Z,21.7
2022-09-13T10:48:38.167Z,21.75
2022-09-13T10:50:17.930Z,21.79
2022-09-13T10:51:57.699Z,21.8
2022-09-13T10:53:37.481Z,21.85
2022-09-13T10:55:17.239Z,21.86
2022-09-13T10:56:57.007Z,21.88
2022-09-13T10:58:36.785Z,21.92
2022-09-13T11:00:16.562Z,21.95
2022-09-13T11:01:56.322Z,22
2022-09-13T11:03:36.134Z,22
2022-09-13T11:05:15.862Z,22.04
2022-09-13T11:06:55.640Z,22.05
2022-09-13T11:08:35.467Z,22.08
2022-09-13T11:10:15.175Z,22.1
2022-09-13T11:11:54.985Z,22.11
2022-09-13T11:13:34.710Z,22.13
2022-09-13T11:15:14.487Z,22.18
2022-09-13T11:16:54.255Z,22.2
2022-09-13T11:18:34.066Z,22.21
2022-09-13T11:20:13.827Z,22.21
2022-09-13T11:21:53.618Z,22.25
2022-09-13T11:23:33.338Z,22.27
2022-09-13T11:25:13.124Z,22.29
2022-09-13T11:26:52.891Z,22.3
2022-09-13T11:28:32.660Z,22.31
2022-09-13T11:30:12.413Z,22.34
2022-09-13T11:31:52.191Z,22.37
2022-09-13T11:33:31.967Z,22.4
2022-09-13T11:35:11.747Z,22.44
2022-09-13T11:36:51.514Z,22.46
2022-09-13T11:38:31.284Z,22.5
2022-09-13T11:40:11.043Z,22.52
2022-09-13T11:41:50.812Z,22.55
2022-09-13T11:43:30.579Z,22.54
2022-09-13T11:45:10.369Z,22.56
2022-09-13T11:46:50.130Z,22.58
2022-09-13T11:48:29.930Z,22.57
2022-09-13T11:50:09.672Z,22.57
2022-09-13T11:51:49.434Z,22.6
2022-09-13T11:53:29.208Z,22.59
2022-09-13T11:55:08.982Z,22.6
2022-09-13T11:56:48.854Z,22.6
2022-09-13T11:58:28.564Z,22.61
2022-09-13T12:00:08.341Z,22.62
2022-09-13T12:01:48.053Z,22.6
2022-09-13T12:03:27.836Z,22.61
2022-09-13T12:05:07.592Z,22.61
2022-09-13T12:06:47.369Z,22.6
2022-09-13T12:08:27.129Z,22.59
2022-09-13T12:10:06.896Z,22.62
2022-09-13T12:11:46.688Z,22.61
2022-09-13T12:13:26.439Z,22.62
2022-09-13T12:15:06.241Z,22.63
2022-09-13T12:16:46.038Z,22.61
2022-09-13T12:18:25.808Z,22.61
2022-09-13T12:20:05.519Z,22.62
2022-09-13T12:21:45.318Z,22.62
2022-09-13T12:23:25.102Z,22.59
2022-09-13T12:25:04.896Z,22.61
2022-09-13T12:26:44.610Z,22.61
2022-09-13T12:28:24.381Z,22.62
2022-09-13T12:30:04.258Z,22.62
2022-09-13T12:33:23.711Z,22.61
2022-09-13T12:35:03.476Z,22.63
2022-09-13T12:36:43.285Z,22.63
2022-09-13T12:40:02.771Z,22.65
2022-09-13T12:41:42.560Z,22.64
2022-09-13T12:43:22.384Z,22.67
2022-09-13T12:45:02.107Z,22.63
2022-09-13T12:46:41.897Z,22.62
2022-09-13T12:48:21.620Z,22.66
2022-09-13T12:50:01.389Z,22.63
2022-09-13T12:51:41.249Z,22.63
2022-09-13T12:53:20.981Z,22.62
2022-09-13T12:55:00.753Z,22.63
2022-09-13T12:56:40.537Z,22.64
2022-09-13T12:58:20.316Z,22.63
2022-09-13T13:00:00.027Z,22.65
2022-09-13T13:01:39.787Z,22.65
2022-09-13T13:03:19.560Z,22.64
2022-09-13T13:04:59.342Z,22.66
2022-09-13T13:06:39.150Z,22.66
2022-09-13T13:08:18.887Z,22.65
2022-09-13T13:09:58.644Z,22.65
2022-09-13T13:11:38.409Z,22.68
2022-09-13T13:13:18.185Z,22.66
2022-09-13T13:14:57.940Z,22.65
2022-09-13T13:16:37.729Z,22.65
2022-09-13T13:18:17.496Z,22.65
2022-09-13T13:19:57.257Z,22.65
2022-09-13T13:21:37.032Z,22.66
2022-09-13T13:23:16.801Z,22.67
2022-09-13T13:24:56.581Z,22.68
2022-09-13T13:26:36.364Z,22.68
2022-09-13T13:28:16.167Z,22.69
2022-09-13T13:29:55.882Z,22.68
2022-09-13T13:31:35.680Z,22.68
2022-09-13T13:33:15.426Z,22.67
2022-09-13T13:34:55.256Z,22.67
2022-09-13T13:36:34.962Z,22.65
2022-09-13T13:38:14.744Z,22.68
2022-09-13T13:39:54.498Z,22.66
2022-09-13T13:41:34.266Z,22.65
2022-09-13T13:43:14.047Z,22.68
2022-09-13T13:44:53.806Z,22.64
2022-09-13T13:46:33.604Z,22.66
2022-09-13T13:48:13.501Z,22.66
2022-09-13T13:49:53.290Z,22.67
2022-09-13T13:51:33.015Z,22.67
2022-09-13T13:53:12.749Z,22.67
2022-09-13T13:54:52.445Z,22.68
2022-09-13T13:56:32.206Z,22.69
2022-09-13T13:58:11.960Z,22.7
2022-09-13T13:59:51.753Z,22.71
2022-09-13T14:01:31.492Z,22.72
2022-09-13T14:03:11.264Z,22.73
2022-09-13T14:04:51.046Z,22.73
2022-09-13T14:06:30.811Z,22.74
2022-09-13T14:08:10.606Z,22.73
2022-09-13T14:09:50.410Z,22.76
2022-09-13T14:11:30.208Z,22.76
2022-09-13T14:14:49.671Z,22.8
2022-09-13T14:16:29.438Z,22.78
2022-09-13T14:18:09.222Z,22.81
2022-09-13T14:19:49.002Z,22.81
2022-09-13T14:21:28.818Z,22.85
2022-09-13T14:23:08.543Z,22.84
2022-09-13T14:24:48.360Z,22.84
2022-09-13T14:26:28.074Z,22.85
2022-09-13T14:28:07.864Z,22.84
2022-09-13T14:29:47.588Z,22.86
2022-09-13T14:31:27.374Z,22.9
2022-09-13T14:33:07.156Z,22.88
2022-09-13T14:34:46.911Z,22.9
2022-09-13T14:36:26.697Z,22.94
2022-09-13T14:38:06.460Z,22.94
2022-09-13T14:39:46.217Z,22.94
2022-09-13T14:41:25.997Z,22.96
2022-09-13T14:43:05.860Z,22.97
2022-09-13T14:44:45.621Z,23.01
2022-09-13T14:46:25.307Z,23.01
2022-09-13T14:48:05.124Z,23.01
2022-09-13T14:49:44.874Z,23.02
2022-09-13T14:51:24.622Z,23.03
2022-09-13T14:53:04.457Z,23.03
2022-09-13T14:54:44.228Z,23.01
2022-09-13T14:56:23.970Z,23
2022-09-13T14:58:03.739Z,23.02
2022-09-13T14:59:43.468Z,23.03
2022-09-13T15:01:23.233Z,23.04
2022-09-13T15:03:03.072Z,23.06
2022-09-13T15:04:42.822Z,23.08
2022-09-13T15:06:22.589Z,23.09
2022-09-13T15:08:02.404Z,23.12
2022-09-13T15:09:42.114Z,23.14
2022-09-13T15:11:21.881Z,23.14
2022-09-13T15:13:01.631Z,23.15
2022-09-13T15:14:41.409Z,23.16
2022-09-13T15:16:21.166Z,23.17
2022-09-13T15:18:00.953Z,23.2
2022-09-13T15:19:40.705Z,23.17
2022-09-13T15:21:20.522Z,23.23
2022-09-13T15:23:00.297Z,23.21
2022-09-13T15:24:40.076Z,23.26
2022-09-13T15:26:19.844Z,23.26
2022-09-13T15:27:59.662Z,23.27
2022-09-13T15:29:39.358Z,23.3
2022-09-13T15:31:19.105Z,23.32
2022-09-13T15:32:58.910Z,23.31
2022-09-13T15:34:38.676Z,23.33
2022-09-13T15:36:18.432Z,23.38
2022-09-13T15:37:58.197Z,23.41
2022-09-13T15:39:38.018Z,23.43
2022-09-13T15:41:17.730Z,23.46
2022-09-13T15:42:57.521Z,23.48
2022-09-13T15:44:37.266Z,23.52
2022-09-13T15:46:17.025Z,23.54
2022-09-13T15:47:56.817Z,23.55
2022-09-13T15:49:36.567Z,23.6
2022-09-13T15:51:16.351Z,23.58
2022-09-13T15:52:56.126Z,23.62
2022-09-13T15:54:35.894Z,23.63
2022-09-13T15:56:15.697Z,23.67
2022-09-13T15:57:55.430Z,23.7
2022-09-13T15:59:35.212Z,23.72
2022-09-13T16:01:14.969Z,23.72
2022-09-13T16:02:54.755Z,23.74
2022-09-13T16:04:34.506Z,23.76
2022-09-13T16:06:14.287Z,23.76
2022-09-13T16:07:54.074Z,23.79
2022-09-13T16:09:33.831Z,23.78
2022-09-13T16:11:13.592Z,23.82
2022-09-13T16:12:53.429Z,23.8
2022-09-13T16:14:33.139Z,23.81
2022-09-13T16:16:12.919Z,23.83
2022-09-13T16:17:52.714Z,23.84
2022-09-13T16:19:32.450Z,23.85
2022-09-13T16:21:12.214Z,23.85
2022-09-13T16:22:52.065Z,23.86
2022-09-13T16:24:31.750Z,23.86
2022-09-13T16:26:11.568Z,23.87
2022-09-13T16:27:51.292Z,23.83
2022-09-13T16:29:31.131Z,23.86
2022-09-13T16:31:10.882Z,23.85
2022-09-13T16:32:50.660Z,23.88
2022-09-13T16:34:30.474Z,23.85
2022-09-13T16:36:10.171Z,23.86
2022-09-13T16:37:49.914Z,23.89
2022-09-13T16:39:29.735Z,23.86
2022-09-13T16:41:09.493Z,23.87
2022-09-13T16:42:49.291Z,23.89
2022-09-13T16:44:29.005Z,23.87
2022-09-13T16:46:08.843Z,23.86
2022-09-13T16:47:48.598Z,23.86
2022-09-13T16:49:28.320Z,23.86
2022-09-13T16:51:08.090Z,23.86
2022-09-13T16:52:47.922Z,23.86
2022-09-13T16:54:27.628Z,23.84
2022-09-13T16:56:07.400Z,23.84
2022-09-13T16:57:47.253Z,23.85
2022-09-13T16:59:26.936Z,23.85
2022-09-13T17:01:06.697Z,23.83
2022-09-13T17:02:46.486Z,23.81
2022-09-13T17:04:26.310Z,23.82
2022-09-13T17:06:06.040Z,23.81
2022-09-13T17:07:45.824Z,23.81
2022-09-13T17:09:25.626Z,23.79
2022-09-13T17:11:05.337Z,23.81
2022-09-13T17:12:45.094Z,23.78
2022-09-13T17:14:24.874Z,23.78
2022-09-13T17:16:04.672Z,23.77
2022-09-13T17:17:44.494Z,23.73
2022-09-13T17:19:24.174Z,23.69
2022-09-13T17:21:03.943Z,23.67
2022-09-13T17:22:43.712Z,23.63
2022-09-13T17:24:23.488Z,23.61
2022-09-13T17:26:03.241Z,23.59
2022-09-13T17:27:43.027Z,23.55
2022-09-13T17:29:22.804Z,23.52
2022-09-13T17:31:02.540Z,23.49
2022-09-13T17:32:42.397Z,23.49
2022-09-13T17:34:22.107Z,23.44
2022-09-13T17:36:01.904Z,23.42
2022-09-13T17:37:41.643Z,23.4
2022-09-13T17:39:21.406Z,23.36
2022-09-13T17:41:01.194Z,23.36
2022-09-13T17:42:40.950Z,23.32
2022-09-13T17:44:20.743Z,23.3
2022-09-13T17:46:00.455Z,23.28
2022-09-13T17:47:40.225Z,23.24
2022-09-13T17:49:19.987Z,23.21
2022-09-13T17:50:59.769Z,23.15
2022-09-13T17:52:39.520Z,23.1
2022-09-13T17:54:19.304Z,23.07
2022-09-13T17:55:59.122Z,23.02
2022-09-13T17:57:38.863Z,22.96
2022-09-13T17:59:18.606Z,22.93
2022-09-13T18:00:58.382Z,22.88
2022-09-13T18:02:38.147Z,22.83
2022-09-13T18:04:17.892Z,22.8
2022-09-13T18:07:37.442Z,22.71
2022-09-13T18:09:17.216Z,22.66
2022-09-13T18:10:56.982Z,22.62
2022-09-13T18:12:36.753Z,22.6
2022-09-13T18:14:16.569Z,22.56
2022-09-13T18:15:56.288Z,22.51
2022-09-13T18:17:36.039Z,22.5
2022-09-13T18:19:15.819Z,22.46
2022-09-13T18:20:55.582Z,22.43
2022-09-13T18:22:35.340Z,22.39
2022-09-13T18:24:15.103Z,22.34
2022-09-13T18:25:54.880Z,22.3
2022-09-13T18:27:34.654Z,22.27
2022-09-13T18:29:14.408Z,22.25
2022-09-13T18:30:54.184Z,22.23
2022-09-13T18:32:33.957Z,22.19
2022-09-13T18:34:13.716Z,22.16
2022-09-13T18:35:53.488Z,22.12
2022-09-13T18:37:33.256Z,22.09
2022-09-13T18:39:13.021Z,22.06
2022-09-13T18:40:52.785Z,22.04
2022-09-13T18:42:32.649Z,22.01
2022-09-13T18:44:12.348Z,21.97
2022-09-13T18:45:52.098Z,21.96
2022-09-13T18:47:31.867Z,21.91
2022-09-13T18:49:11.628Z,21.89
2022-09-13T18:50:51.400Z,21.88
2022-09-13T18:52:31.164Z,21.86
2022-09-13T18:54:10.925Z,21.8
2022-09-13T18:55:50.706Z,21.79
2022-09-13T18:57:30.469Z,21.77
2022-09-13T18:59:10.233Z,21.73
2022-09-13T19:00:50.046Z,21.72
2022-09-13T19:02:29.762Z,21.69
2022-09-13T19:04:09.577Z,21.65
2022-09-13T19:05:49.334Z,21.65
2022-09-13T19:07:29.061Z,21.62
2022-09-13T19:09:08.885Z,21.58
2022-09-13T19:10:48.585Z,21.56
2022-09-13T19:12:28.371Z,21.55
2022-09-13T19:14:08.122Z,21.53
2022-09-13T19:15:47.882Z,21.48
2022-09-13T19:17:27.649Z,21.47
2022-09-13T19:19:07.459Z,21.45
2022-09-13T19:20:47.186Z,21.43
2022-09-13T19:22:26.944Z,21.39
2022-09-13T19:24:06.753Z,21.39
2022-09-13T19:25:46.476Z,21.35
2022-09-13T19:27:26.264Z,21.32
2022-09-13T19:29:06.004Z,21.3
2022-09-13T19:30:45.828Z,21.3
2022-09-13T19:32:25.578Z,21.26
2022-09-13T19:34:05.299Z,21.24
2022-09-13T19:35:45.054Z,21.23
2022-09-13T19:37:24.854Z,21.19
2022-09-13T19:39:04.596Z,21.18
2022-09-13T19:40:44.344Z,21.15
2022-09-13T19:42:24.195Z,21.14
2022-09-13T19:44:03.980Z,21.13
2022-09-13T19:45:43.654Z,21.08
2022-09-13T19:47:23.418Z,21.06
2022-09-13T19:49:03.174Z,21.05
2022-09-13T19:50:42.938Z,21.02
2022-09-13T19:52:22.716Z,21.01
2022-09-13T19:54:02.459Z,20.97
2022-09-13T19:55:42.245Z,20.97
2022-09-13T19:57:22.033Z,20.94
2022-09-13T19:59:01.819Z,20.93
2022-09-13T20:00:41.532Z,20.88
2022-09-13T20:02:21.293Z,20.87
2022-09-13T20:04:01.057Z,20.84
2022-09-13T20:05:40.816Z,20.83
2022-09-13T20:07:20.603Z,20.8
2022-09-13T20:09:00.347Z,20.8
2022-09-13T20:10:40.121Z,20.76
2022-09-13T20:12:19.886Z,20.74
2022-09-13T20:13:59.634Z,20.73
2022-09-13T20:15:39.415Z,20.7
2022-09-13T20:17:19.177Z,20.7
2022-09-13T20:18:58.929Z,20.66
2022-09-13T20:20:38.701Z,20.64
2022-09-13T20:22:18.485Z,20.63
2022-09-13T20:23:58.227Z,20.61
2022-09-13T20:25:38.011Z,20.58
2022-09-13T20:27:17.854Z,20.57
2022-09-13T20:28:57.555Z,20.55
2022-09-13T20:30:37.296Z,20.51
2022-09-13T20:32:17.060Z,20.51
2022-09-13T20:33:56.833Z,20.49
2022-09-13T20:35:36.637Z,20.45
2022-09-13T20:38:56.108Z,20.43
2022-09-13T20:40:35.875Z,20.42
2022-09-13T20:42:15.634Z,20.37
2022-09-13T20:43:55.410Z,20.35
2022-09-13T20:45:35.184Z,20.35
2022-09-13T20:47:14.963Z,20.34
2022-09-13T20:48:54.756Z,20.31
2022-09-13T20:50:34.467Z,20.29
2022-09-13T20:52:14.250Z,20.28
2022-09-13T20:53:54.009Z,20.25
2022-09-13T20:55:33.756Z,20.21
2022-09-13T20:57:13.527Z,20.21
2022-09-13T20:58:53.294Z,20.2
2022-09-13T21:00:33.057Z,20.18
2022-09-13T21:02:12.825Z,20.16
2022-09-13T21:03:52.573Z,20.15
2022-09-13T21:05:32.342Z,20.11
2022-09-13T21:07:12.110Z,20.12
2022-09-13T21:08:51.965Z,20.08
2022-09-13T21:10:31.724Z,20.08
2022-09-13T21:12:11.433Z,20.06
2022-09-13T21:13:51.162Z,20.03
2022-09-13T21:15:30.937Z,20.02
2022-09-13T21:17:10.693Z,20
2022-09-13T21:18:50.455Z,19.98
2022-09-13T21:20:30.239Z,19.95
2022-09-13T21:22:09.994Z,19.94
2022-09-13T21:23:49.743Z,19.94
2022-09-13T21:25:29.524Z,19.9
2022-09-13T21:27:09.290Z,19.87
2022-09-13T21:28:49.044Z,19.86
2022-09-13T21:30:28.805Z,19.86
2022-09-13T21:32:08.580Z,19.83
2022-09-13T21:33:48.385Z,19.82
2022-09-13T21:35:28.094Z,19.79
2022-09-13T21:37:07.874Z,19.78
2022-09-13T21:38:47.643Z,19.76
2022-09-13T21:40:27.469Z,19.75
2022-09-13T21:42:07.174Z,19.73
2022-09-13T21:43:46.949Z,19.7
2022-09-13T21:45:26.714Z,19.7
2022-09-13T21:47:06.454Z,19.7
2022-09-13T21:48:46.238Z,19.67
2022-09-13T21:52:05.753Z,19.62
2022-09-13T21:53:45.514Z,19.62
2022-09-13T21:55:25.287Z,19.6
2022-09-13T21:57:05.031Z,19.6
2022-09-13T21:58:44.803Z,19.56
2022-09-13T22:00:24.574Z,19.54
2022-09-13T22:02:04.338Z,19.54
2022-09-13T22:03:44.099Z,19.53
2022-09-13T22:05:23.897Z,19.5